Time;durP1;ratioP1;P1;durP2;ratioP2;P2;SDS_P1;SDS_P2;PMS_P1;PMS_P2;Temp;Humidity;BMP_temperature;BMP_pressure;BME280_temperature;BME280_humidity;BME280_pressure;Samples;Min_cycle;Max_cycle;Signal;HPM_P1;HPM_P2
2023/05/18 00:01:52;;;;;;;5.23;1.70;;;8.30;97.80;;;;;;5204461;28;20434;-46
2023/05/18 00:04:24;;;;;;;2.70;1.90;;;8.20;98.20;;;;;;5203921;28;20826;-46
2023/05/18 00:07:02;;;;;;;9.60;2.70;;;8.20;98.60;;;;;;5206730;28;20494;-47
2023/05/18 00:09:35;;;;;;;13.83;2.40;;;8.20;98.70;;;;;;5202141;28;20482;-46
2023/05/18 00:12:07;;;;;;;3.33;2.20;;;8.20;99.30;;;;;;5203863;28;20441;-46
2023/05/18 00:14:38;;;;;;;5.50;1.90;;;8.10;99.70;;;;;;5202843;28;20537;-46
2023/05/18 00:17:09;;;;;;;9.60;2.87;;;8.10;99.90;;;;;;5204660;28;20557;-44
2023/05/18 00:19:39;;;;;;;13.63;2.23;;;8.20;99.90;;;;;;5205944;28;20283;-45
2023/05/18 00:22:16;;;;;;;3.77;1.77;;;8.10;99.90;;;;;;5204387;28;20545;-45
2023/05/18 00:24:47;;;;;;;8.97;1.80;;;8.00;99.90;;;;;;5204369;28;20288;-46
2023/05/18 00:27:18;;;;;;;3.23;1.53;;;8.00;99.90;;;;;;5205827;28;20486;-45
2023/05/18 00:29:48;;;;;;;2.00;1.57;;;8.00;99.90;;;;;;5204682;28;20590;-45
2023/05/18 00:32:19;;;;;;;6.43;1.80;;;7.90;99.90;;;;;;5204449;28;20276;-45
2023/05/18 00:34:49;;;;;;;4.53;1.50;;;8.00;99.90;;;;;;5189901;28;20184;-47
2023/05/18 00:37:20;;;;;;;9.90;1.90;;;8.00;99.90;;;;;;5204506;28;20744;-46
2023/05/18 00:39:51;;;;;;;9.80;1.70;;;7.90;99.90;;;;;;5200140;28;20199;-46
2023/05/18 00:42:21;;;;;;;1.70;1.50;;;7.90;99.90;;;;;;5205456;28;20211;-45
2023/05/18 00:44:52;;;;;;;6.23;1.80;;;7.90;99.90;;;;;;5204338;28;20650;-45
2023/05/18 00:47:22;;;;;;;5.60;1.80;;;7.90;99.90;;;;;;5204098;28;20196;-45
2023/05/18 00:49:53;;;;;;;1.70;1.23;;;7.80;99.90;;;;;;5205826;28;20180;-45
2023/05/18 00:52:24;;;;;;;3.93;1.63;;;7.80;99.90;;;;;;5204113;28;20306;-46
2023/05/18 00:54:57;;;;;;;2.80;1.17;;;7.80;99.90;;;;;;5206230;28;20176;-45
2023/05/18 00:57:28;;;;;;;6.77;1.63;;;7.80;99.90;;;;;;5200054;28;20535;-46
2023/05/18 00:59:59;;;;;;;3.60;1.50;;;7.80;99.90;;;;;;5205326;28;20438;-45
2023/05/18 01:02:30;;;;;;;4.07;1.70;;;7.70;99.90;;;;;;5204040;28;20490;-44
2023/05/18 01:05:02;;;;;;;3.17;1.60;;;7.70;99.90;;;;;;5204016;28;20485;-46
2023/05/18 01:07:33;;;;;;;7.00;1.67;;;7.70;99.90;;;;;;5204623;28;20303;-46
2023/05/18 01:10:04;;;;;;;5.17;1.30;;;7.70;99.90;;;;;;5204846;28;20967;-45
2023/05/18 01:12:57;;;;;;;6.23;2.00;;;7.70;99.90;;;;;;5205898;28;20809;-45
2023/05/18 01:15:36;;;;;;;10.80;2.40;;;7.70;99.90;;;;;;5200281;28;20539;-44
2023/05/18 01:18:24;;;;;;;9.83;1.67;;;7.70;99.90;;;;;;5200838;28;20457;-46
2023/05/18 01:21:12;;;;;;;6.80;1.60;;;7.60;99.90;;;;;;5218349;28;20449;-44
2023/05/18 01:24:02;;;;;;;4.07;1.70;;;7.70;99.90;;;;;;5205443;28;20440;-46
2023/05/18 01:26:36;;;;;;;2.93;1.27;;;7.60;99.90;;;;;;5206194;28;20465;-45
2023/05/18 01:29:10;;;;;;;4.93;2.20;;;7.60;99.90;;;;;;5207009;28;20422;-45
2023/05/18 01:31:41;;;;;;;3.97;1.87;;;7.50;99.90;;;;;;5212634;28;20465;-45
2023/05/18 01:34:12;;;;;;;5.40;1.83;;;7.50;99.90;;;;;;5206586;28;20920;-46
2023/05/18 01:36:42;;;;;;;11.83;2.13;;;7.50;99.90;;;;;;5202150;28;20245;-45
2023/05/18 01:39:13;;;;;;;4.67;1.97;;;7.50;99.90;;;;;;5204199;28;20180;-45
2023/05/18 01:41:55;;;;;;;12.00;1.60;;;7.50;99.90;;;;;;5203497;28;20180;-44
2023/05/18 01:44:35;;;;;;;4.37;1.87;;;7.50;99.90;;;;;;5197607;28;20859;-46
2023/05/18 01:47:16;;;;;;;22.00;1.97;;;7.50;99.90;;;;;;5205497;28;20972;-45
2023/05/18 01:50:02;;;;;;;6.23;1.90;;;7.50;99.90;;;;;;5199854;28;20445;-45
2023/05/18 01:53:08;;;;;;;14.80;2.10;;;7.60;99.90;;;;;;5202056;28;20434;-45
2023/05/18 01:55:40;;;;;;;9.63;2.40;;;7.60;99.90;;;;;;5179053;28;20454;-45
2023/05/18 01:58:12;;;;;;;10.10;2.60;;;7.50;99.90;;;;;;5204009;28;20435;-45
2023/05/18 02:00:45;;;;;;;5.80;2.13;;;7.50;99.90;;;;;;5217540;28;20984;-44
2023/05/18 02:03:16;;;;;;;2.47;1.40;;;7.50;99.90;;;;;;5189679;28;20434;-46
2023/05/18 02:05:46;;;;;;;4.50;1.70;;;7.50;99.90;;;;;;5199769;28;20891;-45
2023/05/18 02:08:17;;;;;;;5.20;1.90;;;7.40;99.90;;;;;;5197855;28;20175;-45
2023/05/18 02:10:47;;;;;;;8.93;1.47;;;7.40;99.90;;;;;;5199716;28;20180;-45
2023/05/18 02:13:18;;;;;;;5.67;1.53;;;7.40;99.90;;;;;;5199222;28;20180;-45
2023/05/18 02:15:49;;;;;;;6.97;1.70;;;7.40;99.90;;;;;;5208333;28;20244;-45
2023/05/18 02:18:20;;;;;;;10.10;2.07;;;7.40;99.90;;;;;;5203081;28;20549;-45
2023/05/18 02:21:00;;;;;;;13.27;2.30;;;7.40;99.90;;;;;;5206697;28;20271;-45
2023/05/18 02:23:30;;;;;;;5.07;1.83;;;7.30;99.90;;;;;;5189471;28;20771;-46
2023/05/18 02:26:01;;;;;;;5.57;1.80;;;7.30;99.90;;;;;;5203078;28;20468;-46
2023/05/18 02:28:32;;;;;;;8.87;1.53;;;7.40;99.90;;;;;;5202121;28;20211;-45
2023/05/18 02:31:13;;;;;;;6.10;1.53;;;7.30;99.90;;;;;;5201987;28;20171;-47
2023/05/18 02:33:43;;;;;;;9.90;1.60;;;7.40;99.90;;;;;;5201403;28;20171;-46
2023/05/18 02:36:17;;;;;;;1.97;1.70;;;7.30;99.90;;;;;;5199428;28;20977;-45
2023/05/18 02:38:48;;;;;;;5.50;2.07;;;7.30;99.90;;;;;;5200453;28;20529;-45
2023/05/18 02:41:18;;;;;;;2.70;1.90;;;7.20;99.90;;;;;;5201629;28;20433;-46
2023/05/18 02:43:49;;;;;;;7.57;1.83;;;7.20;99.90;;;;;;5200786;28;20179;-46
2023/05/18 02:46:20;;;;;;;8.63;1.60;;;7.20;99.90;;;;;;5201356;28;20195;-46
2023/05/18 02:48:50;;;;;;;14.60;1.90;;;7.20;99.90;;;;;;5202117;28;20172;-44
2023/05/18 02:51:21;;;;;;;5.90;1.90;;;7.20;99.90;;;;;;5186972;28;20179;-45
2023/05/18 02:53:52;;;;;;;2.50;1.10;;;7.20;99.90;;;;;;5203043;28;20180;-44
2023/05/18 02:56:23;;;;;;;7.93;1.90;;;7.30;99.90;;;;;;5204176;28;20430;-45
2023/05/18 02:58:56;;;;;;;4.97;2.70;;;7.30;99.90;;;;;;5200742;28;20180;-45
2023/05/18 03:01:27;;;;;;;11.43;1.90;;;7.30;99.90;;;;;;5204405;28;20430;-45
2023/05/18 03:03:58;;;;;;;9.87;2.70;;;7.30;99.90;;;;;;5203866;28;20438;-46
2023/05/18 03:06:29;;;;;;;7.50;2.00;;;7.30;99.90;;;;;;5204678;28;20211;-45
2023/05/18 03:08:59;;;;;;;5.00;1.53;;;7.40;99.90;;;;;;5201009;28;20180;-45
2023/05/18 03:11:30;;;;;;;2.10;1.00;;;7.40;99.90;;;;;;5205690;28;20435;-46
2023/05/18 03:14:01;;;;;;;5.10;2.00;;;7.40;99.90;;;;;;5204383;28;20168;-46
2023/05/18 03:16:31;;;;;;;4.97;1.50;;;7.40;99.90;;;;;;5201848;28;20265;-45
2023/05/18 03:19:02;;;;;;;5.67;2.23;;;7.40;99.90;;;;;;5203739;28;20540;-45
2023/05/18 03:21:34;;;;;;;7.43;2.13;;;7.40;99.90;;;;;;5208260;28;20266;-45
2023/05/18 03:24:05;;;;;;;8.80;2.10;;;7.40;99.90;;;;;;5209100;28;20164;-48
2023/05/18 03:26:37;;;;;;;13.07;2.10;;;7.50;99.90;;;;;;5207048;28;20942;-46
2023/05/18 03:29:08;;;;;;;6.33;2.33;;;7.50;99.90;;;;;;5209769;28;20176;-45
2023/05/18 03:31:39;;;;;;;5.83;1.97;;;7.50;99.90;;;;;;5205128;28;20438;-45
2023/05/18 03:34:11;;;;;;;5.20;1.60;;;7.50;99.90;;;;;;5207187;28;20184;-46
2023/05/18 03:36:46;;;;;;;5.90;1.50;;;7.50;99.90;;;;;;5204951;28;20446;-46
2023/05/18 03:39:16;;;;;;;3.53;1.90;;;7.50;99.90;;;;;;5205256;28;20802;-46
2023/05/18 03:41:47;;;;;;;6.47;1.60;;;7.50;99.90;;;;;;5203812;28;20419;-47
2023/05/18 03:44:18;;;;;;;11.07;1.90;;;7.50;99.90;;;;;;5209364;28;20223;-44
2023/05/18 03:46:48;;;;;;;9.13;2.13;;;7.60;99.90;;;;;;5205547;28;20216;-44
2023/05/18 03:49:19;;;;;;;8.97;2.20;;;7.60;99.90;;;;;;5207641;28;20184;-46
2023/05/18 03:51:50;;;;;;;5.53;1.70;;;7.60;99.90;;;;;;5203441;28;20199;-46
2023/05/18 03:54:20;;;;;;;17.17;2.10;;;7.60;99.90;;;;;;5208005;28;20552;-45
2023/05/18 03:56:52;;;;;;;1.80;1.30;;;7.70;99.90;;;;;;5209570;28;20277;-44
2023/05/18 03:59:22;;;;;;;11.63;1.93;;;7.80;99.90;;;;;;5209626;28;20188;-45
2023/05/18 04:01:53;;;;;;;9.67;1.50;;;7.80;99.90;;;;;;5204710;28;20434;-45
2023/05/18 04:04:26;;;;;;;5.10;1.97;;;7.80;99.90;;;;;;5209034;28;20210;-45
2023/05/18 04:06:56;;;;;;;8.50;1.77;;;7.80;99.90;;;;;;5208954;28;20196;-46
2023/05/18 04:09:28;;;;;;;3.67;1.87;;;7.90;99.90;;;;;;5210805;28;20448;-45
2023/05/18 04:11:58;;;;;;;10.73;2.10;;;7.90;99.90;;;;;;5209171;28;20514;-44
2023/05/18 04:14:31;;;;;;;6.30;1.53;;;8.00;99.90;;;;;;5215854;28;20414;-45
2023/05/18 04:17:03;;;;;;;6.57;1.43;;;8.00;99.90;;;;;;5212332;28;20241;-45
2023/05/18 04:19:35;;;;;;;8.27;2.20;;;8.10;99.90;;;;;;5210243;28;20778;-45
2023/05/18 04:22:06;;;;;;;11.67;1.83;;;8.20;99.90;;;;;;5207962;28;20431;-45
2023/05/18 04:24:40;;;;;;;4.70;1.50;;;8.50;99.90;;;;;;5213298;28;20498;-45
2023/05/18 04:27:11;;;;;;;8.70;1.77;;;8.60;99.90;;;;;;5209925;28;20456;-45
2023/05/18 04:29:42;;;;;;;3.27;1.50;;;8.60;99.90;;;;;;5208553;28;20425;-46
2023/05/18 04:32:13;;;;;;;5.20;1.50;;;8.60;99.90;;;;;;5208542;28;20911;-45
2023/05/18 04:34:48;;;;;;;3.07;1.63;;;8.60;99.90;;;;;;5209519;28;20481;-45
2023/05/18 04:37:18;;;;;;;6.50;2.10;;;8.60;99.90;;;;;;5207811;28;20191;-46
2023/05/18 04:39:50;;;;;;;10.87;2.00;;;8.70;99.90;;;;;;5208079;28;20435;-45
2023/05/18 04:42:21;;;;;;;5.67;1.50;;;8.80;99.90;;;;;;5204359;28;20184;-45
2023/05/18 04:44:53;;;;;;;6.63;1.77;;;8.90;99.90;;;;;;5209650;28;20826;-45
2023/05/18 04:47:23;;;;;;;9.73;1.73;;;9.00;99.90;;;;;;5204710;28;20438;-45
2023/05/18 04:49:54;;;;;;;4.80;1.67;;;9.10;99.90;;;;;;5204062;28;20488;-45
2023/05/18 04:52:29;;;;;;;5.73;1.80;;;9.40;99.90;;;;;;5208545;28;20520;-44
2023/05/18 04:55:00;;;;;;;5.63;2.10;;;10.00;99.90;;;;;;5206317;28;20469;-45
2023/05/18 04:57:31;;;;;;;3.80;1.83;;;11.00;99.90;;;;;;5207246;28;20490;-47
2023/05/18 05:00:04;;;;;;;4.07;1.73;;;12.70;98.80;;;;;;5206033;28;20183;-46
2023/05/18 05:02:35;;;;;;;4.43;2.33;;;14.30;84.40;;;;;;5194328;28;20425;-45
2023/05/18 05:05:06;;;;;;;5.53;1.77;;;15.90;70.80;;;;;;5205788;28;20466;-45
2023/05/18 05:07:37;;;;;;;4.13;2.40;;;17.00;60.00;;;;;;5189358;28;20246;-45
2023/05/18 05:10:08;;;;;;;3.27;1.40;;;17.40;55.00;;;;;;5199936;28;20464;-46
2023/05/18 05:12:40;;;;;;;1.40;1.30;;;17.30;53.40;;;;;;5206265;28;20199;-46
2023/05/18 05:15:11;;;;;;;11.43;1.93;;;17.60;53.60;;;;;;5201692;28;20430;-46
2023/05/18 05:17:41;;;;;;;9.77;2.33;;;17.80;51.30;;;;;;5220319;28;20454;-46
2023/05/18 05:20:12;;;;;;;12.60;3.10;;;18.70;50.00;;;;;;5201235;28;20911;-45
2023/05/18 05:22:43;;;;;;;7.70;1.73;;;19.60;47.90;;;;;;5205833;28;20191;-45
2023/05/18 05:25:14;;;;;;;5.30;2.07;;;21.00;45.30;;;;;;5202637;28;20203;-45
2023/05/18 05:27:45;;;;;;;1.57;1.27;;;21.00;41.80;;;;;;5204759;28;20191;-46
2023/05/18 05:30:15;;;;;;;5.00;2.00;;;20.70;42.10;;;;;;5207705;28;20446;-46
2023/05/18 05:32:46;;;;;;;4.57;1.80;;;20.90;42.20;;;;;;5203045;28;20172;-45
2023/05/18 05:35:17;;;;;;;6.10;2.20;;;21.90;42.00;;;;;;5203485;28;20223;-46
2023/05/18 05:37:47;;;;;;;7.13;1.97;;;23.10;39.70;;;;;;5200909;28;20206;-46
2023/05/18 05:40:18;;;;;;;3.13;1.40;;;22.80;39.00;;;;;;5208352;28;20175;-46
2023/05/18 05:42:49;;;;;;;4.43;1.67;;;23.20;38.60;;;;;;5206752;28;20271;-49
2023/05/18 05:45:20;;;;;;;5.20;2.13;;;23.50;37.80;;;;;;5214532;28;20203;-45
2023/05/18 05:47:50;;;;;;;7.87;2.73;;;24.40;36.40;;;;;;5203995;28;20580;-48
2023/05/18 05:50:21;;;;;;;4.33;1.80;;;24.00;35.90;;;;;;5201434;28;20172;-47
2023/05/18 05:52:52;;;;;;;5.63;1.83;;;25.00;35.70;;;;;;5201040;28;20171;-45
2023/05/18 05:55:22;;;;;;;2.70;1.50;;;24.90;34.10;;;;;;5205115;28;20212;-47
2023/05/18 05:57:53;;;;;;;8.00;2.23;;;25.40;34.80;;;;;;5203737;28;20180;-46
2023/05/18 06:00:26;;;;;;;5.23;1.87;;;26.60;33.20;;;;;;5202470;28;20663;-46
2023/05/18 06:02:57;;;;;;;10.10;1.67;;;27.50;30.60;;;;;;5203160;28;20168;-47
2023/05/18 06:05:28;;;;;;;8.23;1.50;;;28.10;30.00;;;;;;5203408;28;20465;-45
2023/05/18 06:07:58;;;;;;;2.43;1.23;;;28.40;29.50;;;;;;5204143;28;20947;-46
2023/05/18 06:10:30;;;;;;;3.73;1.70;;;29.00;29.10;;;;;;5205207;28;20659;-46
2023/05/18 06:13:00;;;;;;;3.50;1.67;;;28.50;28.50;;;;;;5203683;28;20203;-46
2023/05/18 06:15:34;;;;;;;3.43;1.70;;;27.30;29.40;;;;;;5199899;28;20467;-49
2023/05/18 06:18:04;;;;;;;3.90;1.70;;;27.10;29.60;;;;;;5203943;28;20233;-47
2023/05/18 06:20:35;;;;;;;3.00;1.97;;;26.60;30.10;;;;;;5204037;28;20414;-47
2023/05/18 06:23:06;;;;;;;6.40;1.40;;;27.40;29.40;;;;;;5197857;28;20179;-47
2023/05/18 06:25:36;;;;;;;10.47;2.10;;;26.90;29.60;;;;;;5201546;28;20211;-46
2023/05/18 06:28:07;;;;;;;11.13;1.90;;;27.60;29.70;;;;;;5201577;28;20182;-46
2023/05/18 06:30:38;;;;;;;2.10;1.60;;;27.70;29.20;;;;;;5205489;28;20329;-46
2023/05/18 06:33:09;;;;;;;5.17;1.63;;;28.00;29.40;;;;;;5198380;28;20599;-46
2023/05/18 06:35:40;;;;;;;4.20;1.40;;;28.80;28.60;;;;;;5203691;28;20204;-46
2023/05/18 06:38:11;;;;;;;6.33;1.83;;;29.10;28.20;;;;;;5200951;28;20430;-47
2023/05/18 06:40:42;;;;;;;9.90;2.03;;;28.50;28.10;;;;;;5203722;28;20182;-47
2023/05/18 06:43:12;;;;;;;9.03;1.80;;;27.60;29.10;;;;;;5200640;28;20253;-46
2023/05/18 06:45:44;;;;;;;7.93;2.00;;;26.70;29.10;;;;;;5205276;28;20690;-47
2023/05/18 06:48:15;;;;;;;7.10;1.77;;;25.40;30.50;;;;;;5201873;28;20186;-46
2023/05/18 06:50:45;;;;;;;8.23;1.57;;;24.90;31.60;;;;;;5209718;28;20429;-45
2023/05/18 06:53:16;;;;;;;3.13;2.30;;;26.30;31.00;;;;;;5206668;28;20539;-47
2023/05/18 06:55:47;;;;;;;7.10;2.00;;;28.30;28.90;;;;;;5208715;28;20261;-46
2023/05/18 06:58:18;;;;;;;7.73;2.33;;;28.90;28.20;;;;;;5209268;28;20214;-46
2023/05/18 07:00:48;;;;;;;7.70;1.90;;;28.70;27.30;;;;;;5207999;28;20325;-46
2023/05/18 07:03:19;;;;;;;9.83;1.73;;;26.90;28.60;;;;;;5208263;28;20442;-46
2023/05/18 07:05:50;;;;;;;2.83;1.60;;;25.70;30.40;;;;;;5210153;28;20203;-46
2023/05/18 07:08:21;;;;;;;3.23;1.97;;;26.30;30.00;;;;;;5190366;28;20183;-47
2023/05/18 07:10:51;;;;;;;3.20;1.87;;;27.30;29.10;;;;;;5210081;28;20565;-47
2023/05/18 07:13:25;;;;;;;5.60;1.90;;;26.70;29.30;;;;;;5205032;28;20625;-46
2023/05/18 07:15:56;;;;;;;6.30;2.00;;;27.20;29.20;;;;;;5208541;28;20207;-47
2023/05/18 07:18:26;;;;;;;6.73;1.90;;;27.50;29.00;;;;;;5207860;28;20453;-47
2023/05/18 07:20:57;;;;;;;8.87;1.93;;;28.20;28.40;;;;;;5208640;28;20179;-46
2023/05/18 07:23:28;;;;;;;5.23;2.10;;;26.90;28.00;;;;;;5209792;28;20187;-47
2023/05/18 07:25:58;;;;;;;4.20;2.13;;;25.90;29.00;;;;;;5225310;28;20664;-46
2023/05/18 07:28:29;;;;;;;2.50;1.43;;;26.90;28.90;;;;;;5209005;28;20260;-47
2023/05/18 07:31:00;;;;;;;3.37;1.07;;;26.70;28.50;;;;;;5206506;28;20261;-48
2023/05/18 07:33:30;;;;;;;4.10;1.70;;;27.00;28.00;;;;;;5207492;28;20534;-47
2023/05/18 07:36:01;;;;;;;4.00;1.80;;;28.30;27.60;;;;;;5208782;28;20199;-47
2023/05/18 07:38:31;;;;;;;8.17;2.27;;;29.50;26.50;;;;;;5202959;28;20192;-47
2023/05/18 07:41:02;;;;;;;3.07;1.30;;;28.60;25.50;;;;;;5209260;28;20330;-47
2023/05/18 07:43:33;;;;;;;3.00;1.40;;;28.30;26.80;;;;;;5207047;28;20290;-47
2023/05/18 07:46:03;;;;;;;5.27;1.43;;;29.20;26.10;;;;;;5209097;28;20691;-46
2023/05/18 07:48:34;;;;;;;2.27;1.23;;;30.00;25.30;;;;;;5209530;28;20188;-46
2023/05/18 07:51:05;;;;;;;3.47;1.77;;;31.10;25.20;;;;;;5210205;28;20652;-46
2023/05/18 07:53:36;;;;;;;4.80;1.23;;;32.20;23.40;;;;;;5208152;28;20559;-48
2023/05/18 07:56:08;;;;;;;3.40;1.13;;;33.30;22.50;;;;;;5206464;28;20602;-48
2023/05/18 07:58:39;;;;;;;3.73;1.60;;;32.60;22.70;;;;;;5205830;28;20438;-48
2023/05/18 08:01:10;;;;;;;4.43;2.00;;;32.60;22.90;;;;;;5203197;28;20550;-48
2023/05/18 08:03:40;;;;;;;2.17;1.30;;;31.80;23.20;;;;;;5202549;28;20486;-48
2023/05/18 08:06:11;;;;;;;4.10;1.90;;;27.80;25.30;;;;;;5204895;28;20210;-49
2023/05/18 08:08:42;;;;;;;2.20;1.10;;;24.20;28.30;;;;;;5203855;28;20172;-47
2023/05/18 08:11:12;;;;;;;3.70;1.90;;;21.90;30.50;;;;;;5199774;28;20200;-47
2023/05/18 08:13:43;;;;;;;1.67;1.57;;;20.10;33.30;;;;;;5205729;28;20719;-47
2023/05/18 08:16:14;;;;;;;2.93;1.20;;;18.80;35.50;;;;;;5202409;28;20211;-47
2023/05/18 08:18:44;;;;;;;2.20;1.63;;;18.20;36.80;;;;;;5201223;28;20242;-47
2023/05/18 08:21:16;;;;;;;4.53;1.70;;;17.70;38.30;;;;;;5217276;28;20179;-46
2023/05/18 08:23:46;;;;;;;1.43;0.93;;;17.30;38.30;;;;;;5203192;28;20224;-48
2023/05/18 08:26:17;;;;;;;2.67;1.67;;;17.20;38.60;;;;;;5201900;28;20892;-47
2023/05/18 08:28:48;;;;;;;4.30;2.30;;;16.70;38.80;;;;;;5214558;28;20532;-45
2023/05/18 08:31:18;;;;;;;8.30;1.90;;;17.40;39.70;;;;;;5202823;28;20172;-46
2023/05/18 08:33:49;;;;;;;2.00;1.40;;;19.60;36.10;;;;;;5203385;28;20184;-47
2023/05/18 08:36:20;;;;;;;7.53;1.87;;;21.80;32.60;;;;;;5205640;28;20235;-46
2023/05/18 08:38:52;;;;;;;1.70;1.37;;;21.50;30.80;;;;;;5202642;28;20258;-47
2023/05/18 08:41:49;;;;;;;4.53;1.03;;;21.20;31.60;;;;;;5200118;28;20267;-46
2023/05/18 08:44:24;;;;;;;7.97;1.80;;;19.30;33.80;;;;;;5200812;28;20438;-47
2023/05/18 08:46:55;;;;;;;11.60;2.00;;;17.90;36.10;;;;;;5203102;28;20454;-46
2023/05/18 08:49:27;;;;;;;8.07;2.10;;;17.30;38.10;;;;;;5201560;28;20433;-47
2023/05/18 08:52:03;;;;;;;4.80;1.60;;;16.80;39.50;;;;;;5204253;28;20540;-47
2023/05/18 08:54:35;;;;;;;4.57;1.67;;;16.60;40.10;;;;;;5204504;28;20446;-46
2023/05/18 08:57:08;;;;;;;3.50;1.13;;;16.60;40.20;;;;;;5204293;28;20521;-46
2023/05/18 08:59:41;;;;;;;5.40;1.77;;;16.70;40.70;;;;;;5202898;28;20445;-47
2023/05/18 09:02:12;;;;;;;6.33;1.80;;;16.80;40.20;;;;;;5199803;28;20426;-47
2023/05/18 09:04:45;;;;;;;6.13;2.23;;;16.90;39.00;;;;;;5203443;28;20555;-46
2023/05/18 09:07:16;;;;;;;4.83;1.30;;;16.60;38.80;;;;;;5203747;28;20450;-45
2023/05/18 09:09:48;;;;;;;6.27;1.90;;;16.80;39.00;;;;;;5186174;28;20437;-47
2023/05/18 09:12:21;;;;;;;7.03;1.67;;;17.00;38.00;;;;;;5187527;28;20445;-46
2023/05/18 09:14:53;;;;;;;10.03;1.70;;;17.20;37.10;;;;;;5197085;28;20449;-46
2023/05/18 09:17:23;;;;;;;2.60;1.23;;;17.20;37.90;;;;;;5202962;28;20845;-46
2023/05/18 09:19:54;;;;;;;10.47;1.20;;;17.40;38.50;;;;;;5199818;28;20452;-46
2023/05/18 09:22:25;;;;;;;3.93;1.93;;;17.60;37.20;;;;;;5201705;28;20641;-46
2023/05/18 09:24:56;;;;;;;4.40;1.67;;;17.40;37.80;;;;;;5199412;28;20463;-46
2023/05/18 09:27:27;;;;;;;1.90;1.37;;;16.60;38.60;;;;;;5207519;28;20843;-48
2023/05/18 09:29:58;;;;;;;3.43;1.50;;;16.30;40.10;;;;;;5203890;28;20521;-47
2023/05/18 09:32:33;;;;;;;11.80;1.63;;;16.20;40.80;;;;;;5201342;28;20496;-47
2023/05/18 09:35:05;;;;;;;4.30;1.50;;;16.20;40.90;;;;;;5203580;28;20191;-47
2023/05/18 09:37:40;;;;;;;5.90;1.33;;;16.50;40.20;;;;;;5202049;28;20500;-47
2023/05/18 09:40:11;;;;;;;4.23;2.03;;;16.80;40.10;;;;;;5202394;28;20498;-46
2023/05/18 09:42:43;;;;;;;6.33;2.10;;;16.60;38.80;;;;;;5200945;28;20429;-47
2023/05/18 09:45:25;;;;;;;6.80;1.90;;;16.00;40.00;;;;;;5204334;28;20235;-47
2023/05/18 09:47:57;;;;;;;3.70;1.17;;;16.00;40.20;;;;;;5217141;28;20488;-46
2023/05/18 09:50:28;;;;;;;7.73;1.50;;;15.90;40.30;;;;;;5203357;28;20623;-46
2023/05/18 09:52:59;;;;;;;1.47;1.37;;;16.00;40.40;;;;;;5202678;28;20469;-47
2023/05/18 09:55:30;;;;;;;6.53;1.43;;;16.20;40.10;;;;;;5201216;28;20462;-47
2023/05/18 09:58:02;;;;;;;3.90;1.80;;;16.00;39.40;;;;;;5205390;28;20455;-46
2023/05/18 10:00:37;;;;;;;17.13;2.00;;;15.80;39.80;;;;;;5200789;28;20187;-50
2023/05/18 10:03:23;;;;;;;3.03;1.37;;;15.40;40.30;;;;;;5202888;28;20440;-47
2023/05/18 10:05:54;;;;;;;2.73;1.43;;;15.70;40.50;;;;;;5201273;28;20466;-45
2023/05/18 10:08:25;;;;;;;4.67;2.20;;;15.90;40.00;;;;;;5199471;28;20525;-46
2023/05/18 10:10:55;;;;;;;3.47;1.87;;;16.10;39.90;;;;;;5199090;28;20303;-47
2023/05/18 10:13:30;;;;;;;4.90;1.53;;;16.30;39.80;;;;;;5202967;28;20262;-47
2023/05/18 10:16:02;;;;;;;5.97;1.63;;;16.60;39.60;;;;;;5208383;28;20206;-47
2023/05/18 10:18:35;;;;;;;3.80;1.37;;;16.90;39.30;;;;;;5206150;28;20499;-46
2023/05/18 10:21:07;;;;;;;2.10;1.70;;;17.00;38.90;;;;;;5198559;28;20445;-46
2023/05/18 10:23:39;;;;;;;5.77;2.60;;;16.80;38.80;;;;;;5198985;28;20430;-46
2023/05/18 10:26:11;;;;;;;5.40;1.97;;;16.50;39.30;;;;;;5197960;28;20568;-46
2023/05/18 10:28:46;;;;;;;6.00;1.70;;;16.20;39.00;;;;;;5199608;28;20791;-47
2023/05/18 10:31:18;;;;;;;1.93;1.53;;;16.00;39.50;;;;;;5202818;28;20427;-46
2023/05/18 10:33:50;;;;;;;6.73;1.63;;;16.40;40.00;;;;;;5202864;28;21253;-49
2023/05/18 10:36:24;;;;;;;5.77;1.50;;;16.10;39.00;;;;;;5196534;28;20830;-47
2023/05/18 10:38:58;;;;;;;1.13;1.13;;;16.60;39.50;;;;;;5199378;28;20481;-47
2023/05/18 10:41:31;;;;;;;2.80;1.40;;;17.20;38.30;;;;;;5199141;28;20450;-49
2023/05/18 10:44:02;;;;;;;7.43;1.60;;;17.60;38.10;;;;;;5198917;28;20483;-46
2023/05/18 10:46:35;;;;;;;3.53;1.37;;;17.30;37.80;;;;;;5199006;28;20998;-47
2023/05/18 10:49:13;;;;;;;6.23;1.87;;;16.90;38.40;;;;;;5202183;28;20914;-48
2023/05/18 10:51:46;;;;;;;7.60;2.00;;;16.20;39.10;;;;;;5204042;28;20419;-48
2023/05/18 10:54:17;;;;;;;7.77;1.57;;;15.50;41.20;;;;;;5197383;28;20580;-46
2023/05/18 10:56:50;;;;;;;4.30;1.70;;;15.10;41.60;;;;;;5198655;28;20537;-47
2023/05/18 10:59:22;;;;;;;3.63;1.93;;;15.10;41.50;;;;;;5199021;28;20175;-49
2023/05/18 11:01:54;;;;;;;7.13;1.50;;;15.30;41.00;;;;;;5197080;28;20801;-46
2023/05/18 11:04:25;;;;;;;4.53;1.90;;;15.40;40.80;;;;;;5199183;28;20943;-47
2023/05/18 11:07:01;;;;;;;4.43;1.73;;;15.40;41.10;;;;;;5202021;28;20518;-46
2023/05/18 11:09:32;;;;;;;7.43;1.50;;;15.60;40.80;;;;;;5200631;28;21113;-46
2023/05/18 11:12:15;;;;;;;2.17;1.27;;;15.70;40.90;;;;;;5197644;28;20434;-46
2023/05/18 11:14:51;;;;;;;2.23;1.30;;;16.00;40.80;;;;;;5202492;28;20433;-46
2023/05/18 11:17:24;;;;;;;2.30;1.20;;;16.60;39.80;;;;;;5193265;28;20540;-45
2023/05/18 11:20:07;;;;;;;5.83;1.83;;;16.90;39.10;;;;;;5208117;28;20438;-47
2023/05/18 11:22:47;;;;;;;4.33;1.53;;;16.90;39.20;;;;;;5200669;28;20450;-46
2023/05/18 11:25:24;;;;;;;9.17;1.83;;;16.50;40.00;;;;;;5182603;28;21076;-47
2023/05/18 11:28:01;;;;;;;1.73;1.40;;;16.30;40.20;;;;;;5204764;28;20501;-47
2023/05/18 11:30:32;;;;;;;7.03;2.03;;;16.30;40.50;;;;;;5200979;28;20539;-45
2023/05/18 11:33:29;;;;;;;6.20;2.20;;;16.20;41.00;;;;;;5199528;28;20516;-46
2023/05/18 11:36:13;;;;;;;3.53;1.30;;;16.50;40.70;;;;;;5197210;28;20537;-45
2023/05/18 11:38:54;;;;;;;4.10;1.40;;;16.50;39.70;;;;;;5205599;28;20430;-46
2023/05/18 11:41:41;;;;;;;5.07;1.90;;;16.70;39.60;;;;;;5201343;28;20962;-46
2023/05/18 11:44:13;;;;;;;4.17;1.70;;;16.60;39.10;;;;;;5203880;28;20430;-45
2023/05/18 11:46:52;;;;;;;4.53;1.30;;;17.10;39.00;;;;;;5203047;28;20927;-46
2023/05/18 11:49:24;;;;;;;14.70;3.20;;;17.40;38.20;;;;;;5203253;28;20452;-47
2023/05/18 11:52:00;;;;;;;4.17;2.47;;;17.80;38.40;;;;;;5205368;28;20504;-47
2023/05/18 11:54:45;;;;;;;12.33;2.20;;;18.10;38.10;;;;;;5202999;28;20438;-48
2023/05/18 11:57:18;;;;;;;5.30;1.77;;;17.40;36.40;;;;;;5204587;28;20838;-47
2023/05/18 11:59:54;;;;;;;1.40;1.13;;;16.70;38.10;;;;;;5204123;28;20526;-46
2023/05/18 12:02:27;;;;;;;6.00;1.50;;;16.30;39.60;;;;;;5204202;28;20430;-48
2023/05/18 12:04:59;;;;;;;4.40;1.30;;;16.00;40.10;;;;;;5203726;28;20487;-47
2023/05/18 12:07:34;;;;;;;5.10;1.93;;;15.70;40.90;;;;;;5203682;28;20945;-48
2023/05/18 12:10:09;;;;;;;4.23;1.57;;;15.50;41.80;;;;;;5203364;28;20407;-48
2023/05/18 12:12:40;;;;;;;4.10;1.83;;;15.60;41.50;;;;;;5209093;28;20501;-46
2023/05/18 12:15:12;;;;;;;7.23;1.83;;;15.60;41.80;;;;;;5203941;28;20514;-48
2023/05/18 12:17:45;;;;;;;1.47;1.00;;;15.70;40.90;;;;;;5206539;28;20360;-46
2023/05/18 12:20:23;;;;;;;6.77;1.43;;;15.80;40.60;;;;;;5204486;28;20492;-46
2023/05/18 12:22:55;;;;;;;6.33;1.53;;;16.10;40.40;;;;;;5203851;28;20438;-46
2023/05/18 12:25:26;;;;;;;5.77;1.40;;;16.10;40.00;;;;;;5202843;28;20492;-47
2023/05/18 12:27:58;;;;;;;1.40;1.13;;;16.30;39.80;;;;;;5206440;28;20415;-45
2023/05/18 12:30:33;;;;;;;3.60;0.90;;;16.40;39.00;;;;;;5204462;28;20657;-45
2023/05/18 12:33:05;;;;;;;2.30;1.17;;;16.70;38.70;;;;;;5202774;28;20935;-45
2023/05/18 12:35:36;;;;;;;2.73;1.60;;;17.00;38.70;;;;;;5205681;28;21020;-46
2023/05/18 12:38:07;;;;;;;3.07;1.13;;;17.40;38.60;;;;;;5201188;28;20435;-46
2023/05/18 12:40:43;;;;;;;10.97;1.90;;;17.30;37.90;;;;;;5205174;28;20246;-47
2023/05/18 12:43:13;;;;;;;3.70;1.60;;;16.90;38.90;;;;;;5204479;28;20199;-48
2023/05/18 12:45:45;;;;;;;2.37;1.33;;;16.50;39.40;;;;;;5197975;28;20493;-46
2023/05/18 12:48:15;;;;;;;8.00;1.80;;;16.10;39.00;;;;;;5203594;28;20180;-47
2023/05/18 12:50:47;;;;;;;11.00;1.90;;;16.10;39.80;;;;;;5218716;28;20442;-47
2023/05/18 12:53:18;;;;;;;1.60;1.30;;;16.00;39.60;;;;;;5199351;28;20628;-48
2023/05/18 12:55:57;;;;;;;4.60;1.50;;;16.00;39.80;;;;;;5196384;28;20446;-45
2023/05/18 12:58:27;;;;;;;4.70;1.73;;;16.10;40.40;;;;;;5198869;28;20208;-46
2023/05/18 13:01:06;;;;;;;5.93;1.93;;;16.30;40.00;;;;;;5188402;28;20578;-45
2023/05/18 13:03:40;;;;;;;4.33;2.30;;;16.60;40.10;;;;;;5198323;28;20191;-46
2023/05/18 13:06:11;;;;;;;5.70;1.30;;;16.70;39.70;;;;;;5201267;28;20488;-46
2023/05/18 13:08:42;;;;;;;7.20;1.73;;;16.70;39.50;;;;;;5192047;28;20451;-47
2023/05/18 13:11:14;;;;;;;6.13;1.70;;;16.60;39.80;;;;;;5197062;28;20179;-46
2023/05/18 13:14:09;;;;;;;5.30;1.50;;;16.30;39.00;;;;;;5197534;28;20250;-47
2023/05/18 13:16:44;;;;;;;1.80;1.40;;;15.90;40.00;;;;;;5215030;28;20465;-46
2023/05/18 13:19:17;;;;;;;1.30;1.20;;;15.90;40.50;;;;;;5206076;28;20870;-46